sensor_id;sensor_type;location;lat;lon;timestamp;P1;P2;P0
33264;PMS5003;31404;53.974;-1.086;2023-01-28T00:00:37;12;10;
33264;PMS5003;31404;53.974;-1.086;2023-01-28T00:05:34;7;7;
33264;PMS5003;31404;53.974;-1.086;2023-01-28T00:10:35;12;11;
33264;PMS5003;31404;53.974;-1.086;2023-01-28T00:15:34;15;12;
33264;PMS5003;31404;53.974;-1.086;2023-01-28T00:20:34;10;9;
33264;PMS5003;31404;53.974;-1.086;2023-01-28T00:25:35;17;13;
33264;PMS5003;31404;53.974;-1.086;2023-01-28T00:30:33;13;12;
33264;PMS5003;31404;53.974;-1.086;2023-01-28T00:35:33;13;9;
33264;PMS5003;31404;53.974;-1.086;2023-01-28T00:40:34;15;14;
33264;PMS5003;31404;53.974;-1.086;2023-01-28T00:45:34;11;11;
33264;PMS5003;31404;53.974;-1.086;2023-01-28T00:50:34;13;13;
33264;PMS5003;31404;53.974;-1.086;2023-01-28T00:55:34;12;12;
33264;PMS5003;31404;53.974;-1.086;2023-01-28T01:05:34;17;13;
33264;PMS5003;31404;53.974;-1.086;2023-01-28T01:10:34;19;16;
33264;PMS5003;31404;53.974;-1.086;2023-01-28T01:15:34;12;11;
33264;PMS5003;31404;53.974;-1.086;2023-01-28T01:20:34;16;13;
33264;PMS5003;31404;53.974;-1.086;2023-01-28T01:25:34;14;14;
33264;PMS5003;31404;53.974;-1.086;2023-01-28T01:30:34;15;14;
33264;PMS5003;31404;53.974;-1.086;2023-01-28T01:35:34;18;14;
33264;PMS5003;31404;53.974;-1.086;2023-01-28T01:40:35;15;12;
33264;PMS5003;31404;53.974;-1.086;2023-01-28T01:45:34;15;11;
33264;PMS5003;31404;53.974;-1.086;2023-01-28T01:50:35;14;14;
33264;PMS5003;31404;53.974;-1.086;2023-01-28T01:55:34;15;10;
33264;PMS5003;31404;53.974;-1.086;2023-01-28T02:00:34;12;11;
33264;PMS5003;31404;53.974;-1.086;2023-01-28T02:05:35;10;10;
33264;PMS5003;31404;53.974;-1.086;2023-01-28T02:10:34;13;13;
33264;PMS5003;31404;53.974;-1.086;2023-01-28T02:15:34;13;11;
33264;PMS5003;31404;53.974;-1.086;2023-01-28T02:20:36;15;12;
33264;PMS5003;31404;53.974;-1.086;2023-01-28T02:30:36;11;7;
33264;PMS5003;31404;53.974;-1.086;2023-01-28T02:35:36;10;10;
33264;PMS5003;31404;53.974;-1.086;2023-01-28T02:40:35;14;14;
33264;PMS5003;31404;53.974;-1.086;2023-01-28T02:45:34;13;13;
33264;PMS5003;31404;53.974;-1.086;2023-01-28T02:50:36;10;9;
33264;PMS5003;31404;53.974;-1.086;2023-01-28T02:55:36;14;14;
33264;PMS5003;31404;53.974;-1.086;2023-01-28T03:00:37;14;14;
33264;PMS5003;31404;53.974;-1.086;2023-01-28T03:05:34;16;14;
33264;PMS5003;31404;53.974;-1.086;2023-01-28T03:10:34;13;9;
33264;PMS5003;31404;53.974;-1.086;2023-01-28T03:15:34;19;15;
33264;PMS5003;31404;53.974;-1.086;2023-01-28T03:20:36;18;14;
33264;PMS5003;31404;53.974;-1.086;2023-01-28T03:30:36;13;13;
33264;PMS5003;31404;53.974;-1.086;2023-01-28T03:35:34;16;16;
33264;PMS5003;31404;53.974;-1.086;2023-01-28T03:40:34;11;8;
33264;PMS5003;31404;53.974;-1.086;2023-01-28T03:45:34;14;12;
33264;PMS5003;31404;53.974;-1.086;2023-01-28T03:50:34;17;13;
33264;PMS5003;31404;53.974;-1.086;2023-01-28T03:55:33;15;13;
33264;PMS5003;31404;53.974;-1.086;2023-01-28T04:00:34;16;16;
33264;PMS5003;31404;53.974;-1.086;2023-01-28T04:05:34;16;16;
33264;PMS5003;31404;53.974;-1.086;2023-01-28T04:10:34;14;14;
33264;PMS5003;31404;53.974;-1.086;2023-01-28T04:15:34;14;13;
33264;PMS5003;31404;53.974;-1.086;2023-01-28T04:20:33;16;16;
33264;PMS5003;31404;53.974;-1.086;2023-01-28T04:25:34;19;17;
33264;PMS5003;31404;53.974;-1.086;2023-01-28T04:30:34;18;16;
33264;PMS5003;31404;53.974;-1.086;2023-01-28T04:35:34;15;13;
33264;PMS5003;31404;53.974;-1.086;2023-01-28T04:40:34;17;13;
33264;PMS5003;31404;53.974;-1.086;2023-01-28T04:45:34;16;16;
33264;PMS5003;31404;53.974;-1.086;2023-01-28T04:50:34;24;21;
33264;PMS5003;31404;53.974;-1.086;2023-01-28T04:55:34;20;17;
33264;PMS5003;31404;53.974;-1.086;2023-01-28T05:00:34;24;22;
33264;PMS5003;31404;53.974;-1.086;2023-01-28T05:05:34;22;21;
33264;PMS5003;31404;53.974;-1.086;2023-01-28T05:10:34;17;13;
33264;PMS5003;31404;53.974;-1.086;2023-01-28T05:15:34;17;16;
33264;PMS5003;31404;53.974;-1.086;2023-01-28T05:20:34;28;28;
33264;PMS5003;31404;53.974;-1.086;2023-01-28T05:25:35;19;15;
33264;PMS5003;31404;53.974;-1.086;2023-01-28T05:30:34;24;21;
33264;PMS5003;31404;53.974;-1.086;2023-01-28T05:35:34;26;21;
33264;PMS5003;31404;53.974;-1.086;2023-01-28T05:40:34;19;17;
33264;PMS5003;31404;53.974;-1.086;2023-01-28T05:45:34;24;19;
33264;PMS5003;31404;53.974;-1.086;2023-01-28T05:50:34;19;18;
33264;PMS5003;31404;53.974;-1.086;2023-01-28T05:55:34;28;23;
33264;PMS5003;31404;53.974;-1.086;2023-01-28T06:00:34;26;21;
33264;PMS5003;31404;53.974;-1.086;2023-01-28T06:05:34;21;17;
33264;PMS5003;31404;53.974;-1.086;2023-01-28T06:10:34;19;19;
33264;PMS5003;31404;53.974;-1.086;2023-01-28T06:15:34;23;19;
33264;PMS5003;31404;53.974;-1.086;2023-01-28T06:20:34;27;22;
33264;PMS5003;31404;53.974;-1.086;2023-01-28T06:25:36;26;24;
33264;PMS5003;31404;53.974;-1.086;2023-01-28T06:30:34;27;20;
33264;PMS5003;31404;53.974;-1.086;2023-01-28T06:35:34;29;24;
33264;PMS5003;31404;53.974;-1.086;2023-01-28T06:40:34;23;22;
33264;PMS5003;31404;53.974;-1.086;2023-01-28T06:45:34;25;24;
33264;PMS5003;31404;53.974;-1.086;2023-01-28T06:50:34;30;22;
33264;PMS5003;31404;53.974;-1.086;2023-01-28T06:55:34;26;26;
33264;PMS5003;31404;53.974;-1.086;2023-01-28T07:00:34;25;22;
33264;PMS5003;31404;53.974;-1.086;2023-01-28T07:05:34;22;22;
33264;PMS5003;31404;53.974;-1.086;2023-01-28T07:10:34;32;29;
33264;PMS5003;31404;53.974;-1.086;2023-01-28T07:15:35;32;31;
33264;PMS5003;31404;53.974;-1.086;2023-01-28T07:20:34;40;32;
33264;PMS5003;31404;53.974;-1.086;2023-01-28T07:25:34;38;35;
33264;PMS5003;31404;53.974;-1.086;2023-01-28T07:30:34;40;38;
33264;PMS5003;31404;53.974;-1.086;2023-01-28T07:35:34;34;29;
33264;PMS5003;31404;53.974;-1.086;2023-01-28T07:40:35;39;31;
33264;PMS5003;31404;53.974;-1.086;2023-01-28T07:45:34;28;24;
33264;PMS5003;31404;53.974;-1.086;2023-01-28T07:50:35;45;36;
33264;PMS5003;31404;53.974;-1.086;2023-01-28T07:55:34;32;25;
33264;PMS5003;31404;53.974;-1.086;2023-01-28T08:00:35;22;20;
33264;PMS5003;31404;53.974;-1.086;2023-01-28T08:05:37;24;21;
33264;PMS5003;31404;53.974;-1.086;2023-01-28T08:10:34;33;29;
33264;PMS5003;31404;53.974;-1.086;2023-01-28T08:15:34;42;34;
33264;PMS5003;31404;53.974;-1.086;2023-01-28T08:20:34;36;33;
33264;PMS5003;31404;53.974;-1.086;2023-01-28T08:25:34;35;32;
33264;PMS5003;31404;53.974;-1.086;2023-01-28T08:30:33;34;32;
33264;PMS5003;31404;53.974;-1.086;2023-01-28T08:35:35;34;29;
33264;PMS5003;31404;53.974;-1.086;2023-01-28T08:40:34;28;23;
33264;PMS5003;31404;53.974;-1.086;2023-01-28T08:45:35;33;28;
33264;PMS5003;31404;53.974;-1.086;2023-01-28T08:50:34;34;32;
33264;PMS5003;31404;53.974;-1.086;2023-01-28T08:55:34;36;30;
33264;PMS5003;31404;53.974;-1.086;2023-01-28T09:00:34;42;40;
33264;PMS5003;31404;53.974;-1.086;2023-01-28T09:05:34;42;37;
33264;PMS5003;31404;53.974;-1.086;2023-01-28T09:10:34;27;25;
33264;PMS5003;31404;53.974;-1.086;2023-01-28T09:15:34;37;30;
33264;PMS5003;31404;53.974;-1.086;2023-01-28T09:20:35;37;34;
33264;PMS5003;31404;53.974;-1.086;2023-01-28T09:25:34;28;28;
33264;PMS5003;31404;53.974;-1.086;2023-01-28T09:30:34;29;29;
33264;PMS5003;31404;53.974;-1.086;2023-01-28T09:35:35;18;16;
33264;PMS5003;31404;53.974;-1.086;2023-01-28T09:40:35;27;24;
33264;PMS5003;31404;53.974;-1.086;2023-01-28T09:45:35;28;23;
33264;PMS5003;31404;53.974;-1.086;2023-01-28T09:50:35;27;27;
33264;PMS5003;31404;53.974;-1.086;2023-01-28T09:55:35;48;45;
33264;PMS5003;31404;53.974;-1.086;2023-01-28T10:00:36;35;32;
33264;PMS5003;31404;53.974;-1.086;2023-01-28T10:05:36;22;17;
33264;PMS5003;31404;53.974;-1.086;2023-01-28T10:10:34;26;25;
33264;PMS5003;31404;53.974;-1.086;2023-01-28T10:20:35;21;20;
33264;PMS5003;31404;53.974;-1.086;2023-01-28T10:25:34;26;22;
33264;PMS5003;31404;53.974;-1.086;2023-01-28T10:30:34;25;20;
33264;PMS5003;31404;53.974;-1.086;2023-01-28T10:35:37;32;24;
33264;PMS5003;31404;53.974;-1.086;2023-01-28T10:40:34;22;21;
33264;PMS5003;31404;53.974;-1.086;2023-01-28T10:45:35;24;19;
33264;PMS5003;31404;53.974;-1.086;2023-01-28T10:50:34;19;19;
33264;PMS5003;31404;53.974;-1.086;2023-01-28T10:55:45;19;16;
33264;PMS5003;31404;53.974;-1.086;2023-01-28T11:00:34;20;15;
33264;PMS5003;31404;53.974;-1.086;2023-01-28T11:05:35;15;13;
33264;PMS5003;31404;53.974;-1.086;2023-01-28T11:10:35;11;8;
33264;PMS5003;31404;53.974;-1.086;2023-01-28T11:15:34;12;8;
33264;PMS5003;31404;53.974;-1.086;2023-01-28T11:20:35;26;22;
33264;PMS5003;31404;53.974;-1.086;2023-01-28T11:25:35;28;28;
33264;PMS5003;31404;53.974;-1.086;2023-01-28T11:30:34;38;35;
33264;PMS5003;31404;53.974;-1.086;2023-01-28T11:35:34;18;16;
33264;PMS5003;31404;53.974;-1.086;2023-01-28T11:40:34;16;15;
33264;PMS5003;31404;53.974;-1.086;2023-01-28T11:45:34;20;18;
33264;PMS5003;31404;53.974;-1.086;2023-01-28T11:50:37;7;7;
33264;PMS5003;31404;53.974;-1.086;2023-01-28T11:55:36;6;5;
33264;PMS5003;31404;53.974;-1.086;2023-01-28T12:00:37;6;6;
33264;PMS5003;31404;53.974;-1.086;2023-01-28T12:10:37;9;7;
33264;PMS5003;31404;53.974;-1.086;2023-01-28T12:20:36;13;10;
33264;PMS5003;31404;53.974;-1.086;2023-01-28T12:25:38;17;12;
33264;PMS5003;31404;53.974;-1.086;2023-01-28T12:45:36;9;8;
33264;PMS5003;31404;53.974;-1.086;2023-01-28T12:50:35;9;7;
33264;PMS5003;31404;53.974;-1.086;2023-01-28T12:55:36;9;9;
33264;PMS5003;31404;53.974;-1.086;2023-01-28T13:00:35;10;9;
33264;PMS5003;31404;53.974;-1.086;2023-01-28T13:05:35;9;8;
33264;PMS5003;31404;53.974;-1.086;2023-01-28T13:10:35;10;10;
33264;PMS5003;31404;53.974;-1.086;2023-01-28T13:15:35;10;10;
33264;PMS5003;31404;53.974;-1.086;2023-01-28T13:20:36;9;9;
33264;PMS5003;31404;53.974;-1.086;2023-01-28T13:25:34;9;9;
33264;PMS5003;31404;53.974;-1.086;2023-01-28T13:30:35;7;7;
33264;PMS5003;31404;53.974;-1.086;2023-01-28T13:35:35;10;8;
33264;PMS5003;31404;53.974;-1.086;2023-01-28T13:40:34;4;4;
33264;PMS5003;31404;53.974;-1.086;2023-01-28T13:45:34;6;6;
33264;PMS5003;31404;53.974;-1.086;2023-01-28T13:50:37;10;8;
33264;PMS5003;31404;53.974;-1.086;2023-01-28T13:55:35;11;8;
33264;PMS5003;31404;53.974;-1.086;2023-01-28T14:00:36;6;6;
33264;PMS5003;31404;53.974;-1.086;2023-01-28T14:20:36;9;9;
33264;PMS5003;31404;53.974;-1.086;2023-01-28T14:25:36;6;6;
33264;PMS5003;31404;53.974;-1.086;2023-01-28T14:30:40;11;11;
33264;PMS5003;31404;53.974;-1.086;2023-01-28T14:35:34;17;15;
33264;PMS5003;31404;53.974;-1.086;2023-01-28T14:40:34;13;13;
33264;PMS5003;31404;53.974;-1.086;2023-01-28T14:50:38;13;13;
33264;PMS5003;31404;53.974;-1.086;2023-01-28T14:55:35;14;14;
33264;PMS5003;31404;53.974;-1.086;2023-01-28T15:00:34;17;16;
33264;PMS5003;31404;53.974;-1.086;2023-01-28T15:05:35;13;13;
33264;PMS5003;31404;53.974;-1.086;2023-01-28T15:10:34;12;12;
33264;PMS5003;31404;53.974;-1.086;2023-01-28T15:15:34;11;10;
33264;PMS5003;31404;53.974;-1.086;2023-01-28T15:20:34;11;11;
33264;PMS5003;31404;53.974;-1.086;2023-01-28T15:25:34;16;15;
33264;PMS5003;31404;53.974;-1.086;2023-01-28T15:30:34;19;18;
33264;PMS5003;31404;53.974;-1.086;2023-01-28T15:35:34;12;11;
33264;PMS5003;31404;53.974;-1.086;2023-01-28T15:45:34;15;14;
33264;PMS5003;31404;53.974;-1.086;2023-01-28T15:50:34;13;13;
33264;PMS5003;31404;53.974;-1.086;2023-01-28T15:55:35;8;6;
33264;PMS5003;31404;53.974;-1.086;2023-01-28T16:00:34;11;9;
33264;PMS5003;31404;53.974;-1.086;2023-01-28T16:05:34;13;12;
33264;PMS5003;31404;53.974;-1.086;2023-01-28T16:10:34;14;14;
33264;PMS5003;31404;53.974;-1.086;2023-01-28T16:15:34;16;15;
33264;PMS5003;31404;53.974;-1.086;2023-01-28T16:20:34;18;17;
33264;PMS5003;31404;53.974;-1.086;2023-01-28T16:25:34;17;17;
33264;PMS5003;31404;53.974;-1.086;2023-01-28T16:30:34;20;15;
33264;PMS5003;31404;53.974;-1.086;2023-01-28T16:35:34;16;12;
33264;PMS5003;31404;53.974;-1.086;2023-01-28T16:40:34;14;12;
33264;PMS5003;31404;53.974;-1.086;2023-01-28T16:45:34;19;16;
33264;PMS5003;31404;53.974;-1.086;2023-01-28T16:50:34;14;14;
33264;PMS5003;31404;53.974;-1.086;2023-01-28T16:55:34;12;11;
33264;PMS5003;31404;53.974;-1.086;2023-01-28T17:00:34;11;11;
33264;PMS5003;31404;53.974;-1.086;2023-01-28T17:05:40;14;12;
33264;PMS5003;31404;53.974;-1.086;2023-01-28T17:10:34;14;13;
33264;PMS5003;31404;53.974;-1.086;2023-01-28T17:15:34;13;11;
33264;PMS5003;31404;53.974;-1.086;2023-01-28T17:20:35;11;10;
33264;PMS5003;31404;53.974;-1.086;2023-01-28T17:25:35;9;8;
33264;PMS5003;31404;53.974;-1.086;2023-01-28T17:30:35;5;5;
33264;PMS5003;31404;53.974;-1.086;2023-01-28T17:35:34;7;7;
33264;PMS5003;31404;53.974;-1.086;2023-01-28T17:40:34;9;9;
33264;PMS5003;31404;53.974;-1.086;2023-01-28T17:50:35;16;16;
33264;PMS5003;31404;53.974;-1.086;2023-01-28T17:55:34;7;7;
33264;PMS5003;31404;53.974;-1.086;2023-01-28T18:00:34;12;9;
33264;PMS5003;31404;53.974;-1.086;2023-01-28T18:05:34;9;9;
33264;PMS5003;31404;53.974;-1.086;2023-01-28T18:10:34;6;6;
33264;PMS5003;31404;53.974;-1.086;2023-01-28T18:15:34;7;7;
33264;PMS5003;31404;53.974;-1.086;2023-01-28T18:20:34;9;7;
33264;PMS5003;31404;53.974;-1.086;2023-01-28T18:25:34;6;4;
33264;PMS5003;31404;53.974;-1.086;2023-01-28T18:40:34;7;7;
33264;PMS5003;31404;53.974;-1.086;2023-01-28T18:45:30;7;6;
33264;PMS5003;31404;53.974;-1.086;2023-01-28T18:50:34;6;6;
33264;PMS5003;31404;53.974;-1.086;2023-01-28T18:55:35;7;7;
33264;PMS5003;31404;53.974;-1.086;2023-01-28T19:00:34;13;10;
33264;PMS5003;31404;53.974;-1.086;2023-01-28T19:05:34;7;7;
33264;PMS5003;31404;53.974;-1.086;2023-01-28T19:10:34;7;7;
33264;PMS5003;31404;53.974;-1.086;2023-01-28T19:15:34;8;7;
33264;PMS5003;31404;53.974;-1.086;2023-01-28T19:20:35;10;9;
33264;PMS5003;31404;53.974;-1.086;2023-01-28T19:25:34;11;9;
33264;PMS5003;31404;53.974;-1.086;2023-01-28T19:30:34;17;14;
33264;PMS5003;31404;53.974;-1.086;2023-01-28T19:35:34;12;10;
33264;PMS5003;31404;53.974;-1.086;2023-01-28T19:40:34;12;10;
33264;PMS5003;31404;53.974;-1.086;2023-01-28T19:45:34;12;8;
33264;PMS5003;31404;53.974;-1.086;2023-01-28T19:50:35;15;12;
33264;PMS5003;31404;53.974;-1.086;2023-01-28T19:55:36;13;13;
33264;PMS5003;31404;53.974;-1.086;2023-01-28T20:00:34;12;11;
33264;PMS5003;31404;53.974;-1.086;2023-01-28T20:05:35;26;23;
33264;PMS5003;31404;53.974;-1.086;2023-01-28T20:10:34;18;17;
33264;PMS5003;31404;53.974;-1.086;2023-01-28T20:15:34;70;62;
33264;PMS5003;31404;53.974;-1.086;2023-01-28T20:20:34;53;49;
33264;PMS5003;31404;53.974;-1.086;2023-01-28T20:25:34;41;35;
33264;PMS5003;31404;53.974;-1.086;2023-01-28T20:30:34;30;24;
33264;PMS5003;31404;53.974;-1.086;2023-01-28T20:35:34;26;24;
33264;PMS5003;31404;53.974;-1.086;2023-01-28T20:40:34;31;28;
33264;PMS5003;31404;53.974;-1.086;2023-01-28T20:45:34;23;21;
33264;PMS5003;31404;53.974;-1.086;2023-01-28T20:50:34;31;29;
33264;PMS5003;31404;53.974;-1.086;2023-01-28T20:55:34;27;24;
33264;PMS5003;31404;53.974;-1.086;2023-01-28T21:00:35;20;20;
33264;PMS5003;31404;53.974;-1.086;2023-01-28T21:05:35;21;21;
33264;PMS5003;31404;53.974;-1.086;2023-01-28T21:10:34;22;22;
33264;PMS5003;31404;53.974;-1.086;2023-01-28T21:15:34;30;24;
33264;PMS5003;31404;53.974;-1.086;2023-01-28T21:20:34;26;25;
33264;PMS5003;31404;53.974;-1.086;2023-01-28T21:25:34;33;27;
33264;PMS5003;31404;53.974;-1.086;2023-01-28T21:30:34;25;23;
33264;PMS5003;31404;53.974;-1.086;2023-01-28T21:35:35;28;28;
33264;PMS5003;31404;53.974;-1.086;2023-01-28T21:40:34;31;30;
33264;PMS5003;31404;53.974;-1.086;2023-01-28T21:45:34;23;22;
33264;PMS5003;31404;53.974;-1.086;2023-01-28T21:50:34;18;18;
33264;PMS5003;31404;53.974;-1.086;2023-01-28T21:55:34;27;23;
33264;PMS5003;31404;53.974;-1.086;2023-01-28T22:00:34;27;23;
33264;PMS5003;31404;53.974;-1.086;2023-01-28T22:05:35;28;26;
33264;PMS5003;31404;53.974;-1.086;2023-01-28T22:10:34;62;54;
33264;PMS5003;31404;53.974;-1.086;2023-01-28T22:15:35;40;34;
33264;PMS5003;31404;53.974;-1.086;2023-01-28T22:20:34;17;17;
33264;PMS5003;31404;53.974;-1.086;2023-01-28T22:25:34;18;18;
33264;PMS5003;31404;53.974;-1.086;2023-01-28T22:30:34;17;17;
33264;PMS5003;31404;53.974;-1.086;2023-01-28T22:35:35;19;19;
33264;PMS5003;31404;53.974;-1.086;2023-01-28T22:40:34;20;20;
33264;PMS5003;31404;53.974;-1.086;2023-01-28T22:45:34;19;19;
33264;PMS5003;31404;53.974;-1.086;2023-01-28T22:50:34;19;16;
33264;PMS5003;31404;53.974;-1.086;2023-01-28T22:55:34;19;15;
33264;PMS5003;31404;53.974;-1.086;2023-01-28T23:00:34;12;12;
33264;PMS5003;31404;53.974;-1.086;2023-01-28T23:05:35;11;10;
33264;PMS5003;31404;53.974;-1.086;2023-01-28T23:10:34;14;12;
33264;PMS5003;31404;53.974;-1.086;2023-01-28T23:15:34;17;14;
33264;PMS5003;31404;53.974;-1.086;2023-01-28T23:20:34;14;11;
33264;PMS5003;31404;53.974;-1.086;2023-01-28T23:25:34;14;12;
33264;PMS5003;31404;53.974;-1.086;2023-01-28T23:30:34;6;6;
33264;PMS5003;31404;53.974;-1.086;2023-01-28T23:35:34;7;7;
33264;PMS5003;31404;53.974;-1.086;2023-01-28T23:45:34;6;5;
33264;PMS5003;31404;53.974;-1.086;2023-01-28T23:50:34;7;6;
33264;PMS5003;31404;53.974;-1.086;2023-01-28T23:55:36;7;5;
